sensor_id;sensor_type;location;lat;lon;timestamp;pressure;altitude;pressure_sealevel;temperature;humidity
4745;BME280;2386;42.138;24.746;2022-10-23T00:00:28;99979.38;;;12.33;97.41
4745;BME280;2386;42.138;24.746;2022-10-23T00:02:54;99975.00;;;12.43;97.06
4745;BME280;2386;42.138;24.746;2022-10-23T00:05:21;99987.56;;;12.44;98.25
4745;BME280;2386;42.138;24.746;2022-10-23T00:07:50;99979.03;;;12.53;97.54
4745;BME280;2386;42.138;24.746;2022-10-23T00:10:16;99976.44;;;12.58;96.57
4745;BME280;2386;42.138;24.746;2022-10-23T00:12:42;99975.16;;;12.60;97.02
4745;BME280;2386;42.138;24.746;2022-10-23T00:15:08;99967.81;;;12.61;95.58
4745;BME280;2386;42.138;24.746;2022-10-23T00:17:33;99963.53;;;12.65;95.85
4745;BME280;2386;42.138;24.746;2022-10-23T00:19:59;99951.00;;;12.52;96.66
4745;BME280;2386;42.138;24.746;2022-10-23T00:22:25;99945.81;;;12.50;96.86
4745;BME280;2386;42.138;24.746;2022-10-23T00:24:50;99942.72;;;12.59;96.85
4745;BME280;2386;42.138;24.746;2022-10-23T00:27:16;99946.88;;;12.61;97.54
4745;BME280;2386;42.138;24.746;2022-10-23T00:29:43;99938.91;;;12.71;96.81
4745;BME280;2386;42.138;24.746;2022-10-23T00:32:08;99938.44;;;12.63;97.57
4745;BME280;2386;42.138;24.746;2022-10-23T00:34:34;99942.34;;;12.67;96.32
4745;BME280;2386;42.138;24.746;2022-10-23T00:36:59;99941.53;;;12.66;95.25
4745;BME280;2386;42.138;24.746;2022-10-23T00:39:24;99939.38;;;12.68;96.44
4745;BME280;2386;42.138;24.746;2022-10-23T00:41:50;99929.22;;;12.75;95.23
4745;BME280;2386;42.138;24.746;2022-10-23T00:46:47;99940.47;;;12.79;96.34
4745;BME280;2386;42.138;24.746;2022-10-23T00:49:14;99946.59;;;12.86;95.27
4745;BME280;2386;42.138;24.746;2022-10-23T00:51:43;99933.59;;;12.88;94.99
4745;BME280;2386;42.138;24.746;2022-10-23T00:54:11;99916.53;;;12.81;95.24
4745;BME280;2386;42.138;24.746;2022-10-23T00:56:39;99931.22;;;12.80;95.90
4745;BME280;2386;42.138;24.746;2022-10-23T00:59:06;99941.41;;;12.73;96.70
4745;BME280;2386;42.138;24.746;2022-10-23T01:01:32;99951.56;;;12.66;94.27
4745;BME280;2386;42.138;24.746;2022-10-23T01:03:59;99934.22;;;12.55;94.51
4745;BME280;2386;42.138;24.746;2022-10-23T01:17:26;99938.69;;;12.38;96.74
4745;BME280;2386;42.138;24.746;2022-10-23T01:20:08;99936.91;;;12.43;96.46
4745;BME280;2386;42.138;24.746;2022-10-23T01:28:01;99946.00;;;12.37;94.73
4745;BME280;2386;42.138;24.746;2022-10-23T01:30:28;99950.13;;;12.28;94.99
4745;BME280;2386;42.138;24.746;2022-10-23T01:33:03;99949.41;;;12.21;96.09
4745;BME280;2386;42.138;24.746;2022-10-23T01:35:45;99932.16;;;12.27;97.20
4745;BME280;2386;42.138;24.746;2022-10-23T01:38:24;99928.97;;;12.18;98.05
4745;BME280;2386;42.138;24.746;2022-10-23T01:41:01;99929.66;;;12.14;98.79
4745;BME280;2386;42.138;24.746;2022-10-23T01:43:38;99930.59;;;12.08;99.07
4745;BME280;2386;42.138;24.746;2022-10-23T01:46:08;99932.28;;;12.21;98.10
4745;BME280;2386;42.138;24.746;2022-10-23T01:48:36;99937.56;;;12.15;100.00
4745;BME280;2386;42.138;24.746;2022-10-23T01:51:06;99927.06;;;12.19;99.59
4745;BME280;2386;42.138;24.746;2022-10-23T01:53:36;99933.47;;;12.25;97.73
4745;BME280;2386;42.138;24.746;2022-10-23T01:56:09;99920.31;;;12.10;98.42
4745;BME280;2386;42.138;24.746;2022-10-23T01:58:36;99916.53;;;12.11;99.21
4745;BME280;2386;42.138;24.746;2022-10-23T02:01:05;99909.28;;;12.05;99.68
4745;BME280;2386;42.138;24.746;2022-10-23T02:03:32;99920.41;;;12.03;100.00
4745;BME280;2386;42.138;24.746;2022-10-23T02:05:59;99907.03;;;12.02;100.00
4745;BME280;2386;42.138;24.746;2022-10-23T02:08:25;99926.06;;;12.02;100.00
4745;BME280;2386;42.138;24.746;2022-10-23T02:13:35;99917.66;;;11.92;100.00
4745;BME280;2386;42.138;24.746;2022-10-23T02:19:29;99923.81;;;11.99;100.00
4745;BME280;2386;42.138;24.746;2022-10-23T02:22:02;99928.22;;;12.11;100.00
4745;BME280;2386;42.138;24.746;2022-10-23T02:24:35;99927.19;;;12.24;99.95
4745;BME280;2386;42.138;24.746;2022-10-23T02:27:10;99925.75;;;12.22;100.00
4745;BME280;2386;42.138;24.746;2022-10-23T02:29:46;99926.13;;;12.25;100.00
4745;BME280;2386;42.138;24.746;2022-10-23T02:32:13;99946.47;;;12.34;100.00
4745;BME280;2386;42.138;24.746;2022-10-23T02:34:39;99942.94;;;12.34;100.00
4745;BME280;2386;42.138;24.746;2022-10-23T02:37:05;99946.63;;;12.39;100.00
4745;BME280;2386;42.138;24.746;2022-10-23T02:39:31;99945.56;;;12.40;100.00
4745;BME280;2386;42.138;24.746;2022-10-23T02:47:20;99958.00;;;12.60;97.42
4745;BME280;2386;42.138;24.746;2022-10-23T02:58:15;99965.34;;;12.59;94.56
4745;BME280;2386;42.138;24.746;2022-10-23T03:00:48;99970.19;;;12.57;94.47
4745;BME280;2386;42.138;24.746;2022-10-23T03:03:18;99959.97;;;12.64;94.09
4745;BME280;2386;42.138;24.746;2022-10-23T03:05:46;99971.47;;;12.66;94.29
4745;BME280;2386;42.138;24.746;2022-10-23T03:08:13;99973.94;;;12.68;93.61
4745;BME280;2386;42.138;24.746;2022-10-23T03:10:39;99975.00;;;12.67;94.22
4745;BME280;2386;42.138;24.746;2022-10-23T03:13:05;99967.44;;;12.45;94.47
4745;BME280;2386;42.138;24.746;2022-10-23T03:15:30;99952.66;;;12.53;94.33
4745;BME280;2386;42.138;24.746;2022-10-23T03:17:56;99952.78;;;12.58;94.00
4745;BME280;2386;42.138;24.746;2022-10-23T03:20:21;99954.06;;;12.67;92.98
4745;BME280;2386;42.138;24.746;2022-10-23T03:22:47;99966.75;;;12.62;93.28
4745;BME280;2386;42.138;24.746;2022-10-23T03:25:12;99967.69;;;12.56;92.91
4745;BME280;2386;42.138;24.746;2022-10-23T03:27:38;99958.31;;;12.63;92.67
4745;BME280;2386;42.138;24.746;2022-10-23T03:30:04;99964.13;;;12.67;92.83
4745;BME280;2386;42.138;24.746;2022-10-23T03:32:30;99952.16;;;12.68;91.74
4745;BME280;2386;42.138;24.746;2022-10-23T03:34:55;99961.75;;;12.82;90.76
4745;BME280;2386;42.138;24.746;2022-10-23T03:37:20;99974.91;;;12.85;90.00
4745;BME280;2386;42.138;24.746;2022-10-23T03:39:46;99982.94;;;12.92;89.76
4745;BME280;2386;42.138;24.746;2022-10-23T03:42:11;99980.00;;;12.93;89.77
4745;BME280;2386;42.138;24.746;2022-10-23T03:44:37;99988.16;;;13.05;88.97
4745;BME280;2386;42.138;24.746;2022-10-23T03:47:02;99975.38;;;13.05;88.58
4745;BME280;2386;42.138;24.746;2022-10-23T03:49:28;99971.81;;;13.05;88.81
4745;BME280;2386;42.138;24.746;2022-10-23T03:51:53;99963.66;;;13.17;88.30
4745;BME280;2386;42.138;24.746;2022-10-23T03:54:20;99965.19;;;13.24;87.72
4745;BME280;2386;42.138;24.746;2022-10-23T03:56:46;99968.97;;;13.35;86.01
4745;BME280;2386;42.138;24.746;2022-10-23T03:59:12;99969.16;;;13.45;85.51
4745;BME280;2386;42.138;24.746;2022-10-23T04:01:37;99981.13;;;13.44;85.33
4745;BME280;2386;42.138;24.746;2022-10-23T04:04:02;99975.19;;;13.47;85.20
4745;BME280;2386;42.138;24.746;2022-10-23T04:06:29;99980.16;;;13.50;85.24
4745;BME280;2386;42.138;24.746;2022-10-23T04:08:54;99972.00;;;13.38;85.73
4745;BME280;2386;42.138;24.746;2022-10-23T04:11:19;99960.09;;;13.28;86.19
4745;BME280;2386;42.138;24.746;2022-10-23T04:13:45;99981.75;;;13.34;86.04
4745;BME280;2386;42.138;24.746;2022-10-23T04:16:10;99983.91;;;13.21;87.16
4745;BME280;2386;42.138;24.746;2022-10-23T04:18:36;99978.69;;;13.07;88.44
4745;BME280;2386;42.138;24.746;2022-10-23T04:21:02;99991.34;;;13.02;89.00
4745;BME280;2386;42.138;24.746;2022-10-23T04:23:27;99991.25;;;12.97;89.54
4745;BME280;2386;42.138;24.746;2022-10-23T04:25:56;99983.19;;;12.90;90.75
4745;BME280;2386;42.138;24.746;2022-10-23T04:28:22;99989.47;;;12.91;90.91
4745;BME280;2386;42.138;24.746;2022-10-23T04:30:48;99975.03;;;12.90;90.54
4745;BME280;2386;42.138;24.746;2022-10-23T04:33:13;99989.09;;;13.10;90.08
4745;BME280;2386;42.138;24.746;2022-10-23T04:35:38;99976.78;;;13.08;89.10
4745;BME280;2386;42.138;24.746;2022-10-23T04:38:04;99981.44;;;13.19;88.54
4745;BME280;2386;42.138;24.746;2022-10-23T04:40:29;99981.66;;;13.29;88.52
4745;BME280;2386;42.138;24.746;2022-10-23T04:42:54;99979.75;;;13.30;87.86
4745;BME280;2386;42.138;24.746;2022-10-23T04:45:20;99975.81;;;13.37;87.62
4745;BME280;2386;42.138;24.746;2022-10-23T04:47:46;99986.09;;;13.47;85.79
4745;BME280;2386;42.138;24.746;2022-10-23T04:50:11;99981.19;;;13.61;85.35
4745;BME280;2386;42.138;24.746;2022-10-23T04:52:36;99973.59;;;13.63;84.64
4745;BME280;2386;42.138;24.746;2022-10-23T04:55:02;99995.47;;;13.79;84.09
4745;BME280;2386;42.138;24.746;2022-10-23T04:57:28;99989.06;;;13.86;83.22
4745;BME280;2386;42.138;24.746;2022-10-23T04:59:53;99987.94;;;13.98;82.29
4745;BME280;2386;42.138;24.746;2022-10-23T05:02:19;100000.75;;;14.14;80.72
4745;BME280;2386;42.138;24.746;2022-10-23T05:04:44;100003.25;;;14.16;80.47
4745;BME280;2386;42.138;24.746;2022-10-23T05:07:09;100003.34;;;14.21;80.29
4745;BME280;2386;42.138;24.746;2022-10-23T05:09:35;99995.50;;;14.25;79.70
4745;BME280;2386;42.138;24.746;2022-10-23T05:12:00;100000.81;;;14.31;79.15
4745;BME280;2386;42.138;24.746;2022-10-23T05:14:26;100002.44;;;14.32;79.39
4745;BME280;2386;42.138;24.746;2022-10-23T05:16:56;100009.19;;;14.41;79.28
4745;BME280;2386;42.138;24.746;2022-10-23T05:19:27;100003.75;;;14.41;78.86
4745;BME280;2386;42.138;24.746;2022-10-23T05:21:54;99994.94;;;14.39;78.53
4745;BME280;2386;42.138;24.746;2022-10-23T05:24:21;100004.78;;;14.40;78.41
4745;BME280;2386;42.138;24.746;2022-10-23T05:26:47;100005.97;;;14.44;78.18
4745;BME280;2386;42.138;24.746;2022-10-23T05:29:16;100013.44;;;14.49;77.91
4745;BME280;2386;42.138;24.746;2022-10-23T05:31:41;100017.66;;;14.57;76.39
4745;BME280;2386;42.138;24.746;2022-10-23T05:34:07;100000.94;;;14.53;76.19
4745;BME280;2386;42.138;24.746;2022-10-23T05:36:32;100017.91;;;14.72;74.21
4745;BME280;2386;42.138;24.746;2022-10-23T05:38:58;100025.25;;;14.88;73.50
4745;BME280;2386;42.138;24.746;2022-10-23T05:41:23;100033.19;;;15.06;71.58
4745;BME280;2386;42.138;24.746;2022-10-23T05:43:49;100023.06;;;15.24;70.33
4745;BME280;2386;42.138;24.746;2022-10-23T05:46:14;100032.63;;;15.43;68.27
4745;BME280;2386;42.138;24.746;2022-10-23T05:48:39;100045.00;;;15.67;66.26
4745;BME280;2386;42.138;24.746;2022-10-23T05:51:07;100045.63;;;15.96;64.77
4745;BME280;2386;42.138;24.746;2022-10-23T05:53:33;100052.22;;;16.22;63.36
4745;BME280;2386;42.138;24.746;2022-10-23T05:56:06;100053.25;;;16.43;61.90
4745;BME280;2386;42.138;24.746;2022-10-23T05:58:32;100055.97;;;16.65;59.81
4745;BME280;2386;42.138;24.746;2022-10-23T06:00:58;100051.75;;;16.84;58.44
4745;BME280;2386;42.138;24.746;2022-10-23T06:03:23;100056.56;;;17.04;58.03
4745;BME280;2386;42.138;24.746;2022-10-23T06:05:49;100054.97;;;17.13;56.87
4745;BME280;2386;42.138;24.746;2022-10-23T06:08:15;100068.44;;;17.20;57.76
4745;BME280;2386;42.138;24.746;2022-10-23T06:10:41;100068.28;;;17.36;55.92
4745;BME280;2386;42.138;24.746;2022-10-23T06:13:06;100074.72;;;17.57;54.12
4745;BME280;2386;42.138;24.746;2022-10-23T06:15:32;100065.03;;;17.82;53.00
4745;BME280;2386;42.138;24.746;2022-10-23T06:18:01;100067.28;;;18.05;51.61
4745;BME280;2386;42.138;24.746;2022-10-23T06:20:27;100051.13;;;18.14;51.57
4745;BME280;2386;42.138;24.746;2022-10-23T06:22:52;100063.25;;;18.33;51.15
4745;BME280;2386;42.138;24.746;2022-10-23T06:25:18;100069.06;;;18.42;50.65
4745;BME280;2386;42.138;24.746;2022-10-23T06:27:43;100065.22;;;18.48;50.70
4745;BME280;2386;42.138;24.746;2022-10-23T06:30:09;100082.00;;;18.66;49.55
4745;BME280;2386;42.138;24.746;2022-10-23T06:32:34;100061.41;;;18.79;49.15
4745;BME280;2386;42.138;24.746;2022-10-23T06:35:00;100085.06;;;18.95;48.76
4745;BME280;2386;42.138;24.746;2022-10-23T06:37:25;100092.78;;;19.03;48.73
4745;BME280;2386;42.138;24.746;2022-10-23T06:39:50;100080.41;;;19.21;48.47
4745;BME280;2386;42.138;24.746;2022-10-23T06:42:16;100095.53;;;19.29;48.51
4745;BME280;2386;42.138;24.746;2022-10-23T06:44:41;100114.75;;;19.39;48.12
4745;BME280;2386;42.138;24.746;2022-10-23T06:47:07;100119.97;;;19.46;47.64
4745;BME280;2386;42.138;24.746;2022-10-23T06:49:34;100121.91;;;19.55;47.42
4745;BME280;2386;42.138;24.746;2022-10-23T06:51:59;100131.81;;;19.61;47.83
4745;BME280;2386;42.138;24.746;2022-10-23T06:54:25;100113.38;;;19.62;47.39
4745;BME280;2386;42.138;24.746;2022-10-23T06:56:53;100120.25;;;19.64;47.64
4745;BME280;2386;42.138;24.746;2022-10-23T06:59:19;100131.78;;;19.77;47.29
4745;BME280;2386;42.138;24.746;2022-10-23T07:01:44;100138.38;;;19.86;47.26
4745;BME280;2386;42.138;24.746;2022-10-23T07:04:09;100138.91;;;19.88;48.00
4745;BME280;2386;42.138;24.746;2022-10-23T07:06:40;100138.63;;;19.89;47.90
4745;BME280;2386;42.138;24.746;2022-10-23T07:09:06;100149.91;;;19.93;47.84
4745;BME280;2386;42.138;24.746;2022-10-23T07:11:32;100148.53;;;20.00;48.05
4745;BME280;2386;42.138;24.746;2022-10-23T07:13:57;100151.50;;;20.09;48.04
4745;BME280;2386;42.138;24.746;2022-10-23T07:16:23;100142.94;;;20.16;48.01
4745;BME280;2386;42.138;24.746;2022-10-23T07:18:53;100130.25;;;20.20;48.10
4745;BME280;2386;42.138;24.746;2022-10-23T07:21:24;100138.19;;;20.26;48.43
4745;BME280;2386;42.138;24.746;2022-10-23T07:23:49;100141.22;;;20.30;48.59
4745;BME280;2386;42.138;24.746;2022-10-23T07:26:15;100149.75;;;20.39;48.60
4745;BME280;2386;42.138;24.746;2022-10-23T07:28:43;100149.19;;;20.42;49.35
4745;BME280;2386;42.138;24.746;2022-10-23T07:31:11;100142.56;;;20.43;48.90
4745;BME280;2386;42.138;24.746;2022-10-23T07:33:37;100140.88;;;20.52;48.82
4745;BME280;2386;42.138;24.746;2022-10-23T07:36:06;100140.28;;;20.60;48.66
4745;BME280;2386;42.138;24.746;2022-10-23T07:38:33;100133.63;;;20.66;48.81
4745;BME280;2386;42.138;24.746;2022-10-23T07:40:58;100143.50;;;20.77;48.78
4745;BME280;2386;42.138;24.746;2022-10-23T07:43:25;100133.75;;;20.85;49.04
4745;BME280;2386;42.138;24.746;2022-10-23T07:45:51;100130.16;;;20.89;48.52
4745;BME280;2386;42.138;24.746;2022-10-23T07:48:18;100132.00;;;20.99;48.43
4745;BME280;2386;42.138;24.746;2022-10-23T07:50:43;100144.91;;;21.09;49.04
4745;BME280;2386;42.138;24.746;2022-10-23T07:53:20;100153.72;;;21.11;48.58
4745;BME280;2386;42.138;24.746;2022-10-23T07:58:22;100157.22;;;21.26;48.78
4745;BME280;2386;42.138;24.746;2022-10-23T08:00:58;100143.63;;;21.35;48.52
4745;BME280;2386;42.138;24.746;2022-10-23T08:03:26;100145.28;;;21.36;49.38
4745;BME280;2386;42.138;24.746;2022-10-23T08:05:53;100139.66;;;21.46;48.49
4745;BME280;2386;42.138;24.746;2022-10-23T08:08:20;100132.44;;;21.50;48.83
4745;BME280;2386;42.138;24.746;2022-10-23T08:10:46;100140.44;;;21.52;49.27
4745;BME280;2386;42.138;24.746;2022-10-23T08:13:12;100139.50;;;21.61;49.74
4745;BME280;2386;42.138;24.746;2022-10-23T08:15:39;100137.47;;;21.72;49.62
4745;BME280;2386;42.138;24.746;2022-10-23T08:18:05;100147.47;;;21.92;49.78
4745;BME280;2386;42.138;24.746;2022-10-23T08:20:31;100142.41;;;21.99;50.73
4745;BME280;2386;42.138;24.746;2022-10-23T08:22:58;100120.75;;;22.11;50.49
4745;BME280;2386;42.138;24.746;2022-10-23T08:25:25;100123.16;;;22.18;49.99
4745;BME280;2386;42.138;24.746;2022-10-23T08:27:51;100129.69;;;22.27;50.47
4745;BME280;2386;42.138;24.746;2022-10-23T08:30:16;100122.94;;;22.33;50.88
4745;BME280;2386;42.138;24.746;2022-10-23T08:32:42;100130.34;;;22.38;51.29
4745;BME280;2386;42.138;24.746;2022-10-23T08:35:08;100107.72;;;22.36;51.68
4745;BME280;2386;42.138;24.746;2022-10-23T08:37:33;100128.63;;;22.42;51.68
4745;BME280;2386;42.138;24.746;2022-10-23T08:39:59;100123.34;;;22.45;50.97
4745;BME280;2386;42.138;24.746;2022-10-23T08:42:25;100135.91;;;22.56;51.25
4745;BME280;2386;42.138;24.746;2022-10-23T08:45:03;100137.34;;;22.54;51.62
4745;BME280;2386;42.138;24.746;2022-10-23T08:47:39;100133.66;;;22.58;51.59
4745;BME280;2386;42.138;24.746;2022-10-23T08:50:35;100131.06;;;22.67;51.65
4745;BME280;2386;42.138;24.746;2022-10-23T08:53:26;100121.66;;;22.68;51.11
4745;BME280;2386;42.138;24.746;2022-10-23T08:55:58;100141.97;;;22.77;51.43
4745;BME280;2386;42.138;24.746;2022-10-23T09:00:57;100131.84;;;22.91;51.45
4745;BME280;2386;42.138;24.746;2022-10-23T09:03:22;100132.88;;;22.96;51.18
4745;BME280;2386;42.138;24.746;2022-10-23T09:05:53;100130.22;;;23.04;50.59
4745;BME280;2386;42.138;24.746;2022-10-23T09:19:21;100141.56;;;23.40;48.94
4745;BME280;2386;42.138;24.746;2022-10-23T09:21:50;100139.09;;;23.39;48.78
4745;BME280;2386;42.138;24.746;2022-10-23T09:24:24;100139.31;;;23.42;48.53
4745;BME280;2386;42.138;24.746;2022-10-23T09:26:52;100139.75;;;23.49;48.48
4745;BME280;2386;42.138;24.746;2022-10-23T09:29:48;100134.72;;;23.51;47.44
4745;BME280;2386;42.138;24.746;2022-10-23T09:32:18;100135.78;;;23.55;46.83
4745;BME280;2386;42.138;24.746;2022-10-23T09:34:52;100135.38;;;23.62;46.77
4745;BME280;2386;42.138;24.746;2022-10-23T09:37:26;100116.50;;;23.64;47.24
4745;BME280;2386;42.138;24.746;2022-10-23T09:40:13;100110.56;;;23.71;47.11
4745;BME280;2386;42.138;24.746;2022-10-23T09:42:53;100124.94;;;23.73;46.98
4745;BME280;2386;42.138;24.746;2022-10-23T09:45:25;100124.22;;;23.81;46.75
4745;BME280;2386;42.138;24.746;2022-10-23T09:50:30;100125.84;;;23.82;46.98
4745;BME280;2386;42.138;24.746;2022-10-23T09:52:59;100102.75;;;23.86;46.37
4745;BME280;2386;42.138;24.746;2022-10-23T09:55:25;100100.72;;;23.92;46.20
4745;BME280;2386;42.138;24.746;2022-10-23T09:57:52;100104.81;;;23.95;46.32
4745;BME280;2386;42.138;24.746;2022-10-23T10:00:20;100103.19;;;23.93;45.05
4745;BME280;2386;42.138;24.746;2022-10-23T10:02:59;100106.06;;;24.02;44.66
4745;BME280;2386;42.138;24.746;2022-10-23T10:05:33;100105.44;;;24.05;45.32
4745;BME280;2386;42.138;24.746;2022-10-23T10:11:15;100099.38;;;24.17;42.56
4745;BME280;2386;42.138;24.746;2022-10-23T10:24:51;100078.34;;;24.30;42.02
4745;BME280;2386;42.138;24.746;2022-10-23T10:27:44;100083.88;;;24.30;42.80
4745;BME280;2386;42.138;24.746;2022-10-23T10:30:20;100079.38;;;24.34;42.02
4745;BME280;2386;42.138;24.746;2022-10-23T10:33:13;100065.00;;;24.32;42.69
4745;BME280;2386;42.138;24.746;2022-10-23T10:38:58;100064.69;;;24.33;41.16
4745;BME280;2386;42.138;24.746;2022-10-23T10:47:49;100062.09;;;24.37;41.48
4745;BME280;2386;42.138;24.746;2022-10-23T11:00:18;100055.06;;;24.53;39.78
4745;BME280;2386;42.138;24.746;2022-10-23T11:02:54;100054.00;;;24.63;38.78
4745;BME280;2386;42.138;24.746;2022-10-23T11:05:43;100048.13;;;24.64;37.40
4745;BME280;2386;42.138;24.746;2022-10-23T11:08:34;100037.34;;;24.63;37.82
4745;BME280;2386;42.138;24.746;2022-10-23T11:11:08;100040.06;;;24.76;38.47
4745;BME280;2386;42.138;24.746;2022-10-23T11:13:41;100046.75;;;24.75;39.13
4745;BME280;2386;42.138;24.746;2022-10-23T11:37:44;100014.84;;;24.86;37.08
4745;BME280;2386;42.138;24.746;2022-10-23T11:40:16;100002.47;;;24.93;37.50
4745;BME280;2386;42.138;24.746;2022-10-23T11:45:32;100016.84;;;24.95;37.00
4745;BME280;2386;42.138;24.746;2022-10-23T11:48:42;100006.78;;;24.99;36.30
4745;BME280;2386;42.138;24.746;2022-10-23T11:50:51;99994.22;;;25.01;36.32
4745;BME280;2386;42.138;24.746;2022-10-23T11:58:43;99996.69;;;25.03;36.10
4745;BME280;2386;42.138;24.746;2022-10-23T12:01:33;99986.59;;;25.07;35.91
4745;BME280;2386;42.138;24.746;2022-10-23T12:06:39;99981.03;;;25.07;36.33
4745;BME280;2386;42.138;24.746;2022-10-23T12:09:29;99979.91;;;25.08;37.35
4745;BME280;2386;42.138;24.746;2022-10-23T12:14:37;99978.41;;;25.02;37.79
4745;BME280;2386;42.138;24.746;2022-10-23T12:22:18;99993.09;;;25.02;36.48
4745;BME280;2386;42.138;24.746;2022-10-23T12:25:04;99985.78;;;25.06;36.69
4745;BME280;2386;42.138;24.746;2022-10-23T12:27:52;99975.16;;;25.08;37.08
4745;BME280;2386;42.138;24.746;2022-10-23T12:30:46;99975.31;;;25.03;36.49
4745;BME280;2386;42.138;24.746;2022-10-23T12:36:08;99977.69;;;25.18;36.60
4745;BME280;2386;42.138;24.746;2022-10-23T12:38:44;99995.34;;;25.23;36.90
4745;BME280;2386;42.138;24.746;2022-10-23T12:41:21;99980.78;;;25.17;36.61
4745;BME280;2386;42.138;24.746;2022-10-23T12:44:00;99996.28;;;25.18;36.79
4745;BME280;2386;42.138;24.746;2022-10-23T12:48:58;99984.88;;;25.19;36.09
4745;BME280;2386;42.138;24.746;2022-10-23T12:51:27;99994.19;;;25.24;36.33
4745;BME280;2386;42.138;24.746;2022-10-23T12:53:52;99979.31;;;25.19;35.87
4745;BME280;2386;42.138;24.746;2022-10-23T12:56:20;99984.38;;;25.17;35.71
4745;BME280;2386;42.138;24.746;2022-10-23T12:58:52;99979.31;;;25.19;35.49
4745;BME280;2386;42.138;24.746;2022-10-23T13:01:24;99980.78;;;25.17;35.98
4745;BME280;2386;42.138;24.746;2022-10-23T13:03:51;99977.25;;;25.03;36.66
4745;BME280;2386;42.138;24.746;2022-10-23T13:06:21;99971.56;;;25.08;36.42
4745;BME280;2386;42.138;24.746;2022-10-23T13:08:47;99978.13;;;25.12;35.76
4745;BME280;2386;42.138;24.746;2022-10-23T13:11:19;99985.69;;;25.20;36.15
4745;BME280;2386;42.138;24.746;2022-10-23T13:13:46;99983.72;;;25.20;36.44
4745;BME280;2386;42.138;24.746;2022-10-23T13:16:14;99984.88;;;25.19;37.32
4745;BME280;2386;42.138;24.746;2022-10-23T13:18:40;99984.69;;;25.16;36.74
4745;BME280;2386;42.138;24.746;2022-10-23T13:21:16;99979.31;;;25.19;36.96
4745;BME280;2386;42.138;24.746;2022-10-23T13:23:42;99980.78;;;25.17;37.40
4745;BME280;2386;42.138;24.746;2022-10-23T13:28:46;99976.00;;;25.09;37.15
4745;BME280;2386;42.138;24.746;2022-10-23T13:33:42;99988.38;;;25.03;37.28
4745;BME280;2386;42.138;24.746;2022-10-23T13:38:37;99982.94;;;24.98;37.59
4745;BME280;2386;42.138;24.746;2022-10-23T13:44:21;99993.00;;;24.94;36.07
4745;BME280;2386;42.138;24.746;2022-10-23T13:46:47;99992.41;;;24.97;36.03
4745;BME280;2386;42.138;24.746;2022-10-23T13:49:12;99991.06;;;24.94;35.95
4745;BME280;2386;42.138;24.746;2022-10-23T13:51:45;99989.09;;;24.95;36.67
4745;BME280;2386;42.138;24.746;2022-10-23T13:54:15;99979.44;;;24.92;36.42
4745;BME280;2386;42.138;24.746;2022-10-23T13:56:42;99966.47;;;24.79;36.71
4745;BME280;2386;42.138;24.746;2022-10-23T13:59:09;99976.25;;;24.76;36.71
4745;BME280;2386;42.138;24.746;2022-10-23T14:01:35;99970.50;;;24.73;36.97
4745;BME280;2386;42.138;24.746;2022-10-23T14:04:01;99975.75;;;24.74;36.95
4745;BME280;2386;42.138;24.746;2022-10-23T14:06:28;99980.28;;;24.70;37.02
4745;BME280;2386;42.138;24.746;2022-10-23T14:08:54;99971.38;;;24.60;37.06
4745;BME280;2386;42.138;24.746;2022-10-23T14:11:20;99976.13;;;24.59;37.90
4745;BME280;2386;42.138;24.746;2022-10-23T14:13:45;99974.16;;;24.60;37.08
4745;BME280;2386;42.138;24.746;2022-10-23T14:16:13;99970.06;;;24.57;37.12
4745;BME280;2386;42.138;24.746;2022-10-23T14:18:39;99969.88;;;24.53;37.21
4745;BME280;2386;42.138;24.746;2022-10-23T14:21:08;99975.25;;;24.50;37.29
4745;BME280;2386;42.138;24.746;2022-10-23T14:23:35;99974.75;;;24.48;37.45
4745;BME280;2386;42.138;24.746;2022-10-23T14:26:05;99976.53;;;24.44;38.02
4745;BME280;2386;42.138;24.746;2022-10-23T14:28:31;99982.19;;;24.39;38.03
4745;BME280;2386;42.138;24.746;2022-10-23T14:30:57;99983.94;;;24.35;38.37
4745;BME280;2386;42.138;24.746;2022-10-23T14:33:22;99972.34;;;24.33;37.87
4745;BME280;2386;42.138;24.746;2022-10-23T14:35:51;99973.59;;;24.27;38.11
4745;BME280;2386;42.138;24.746;2022-10-23T14:38:16;99986.31;;;24.28;38.19
4745;BME280;2386;42.138;24.746;2022-10-23T14:40:41;99985.91;;;24.20;38.42
4745;BME280;2386;42.138;24.746;2022-10-23T14:43:07;99991.06;;;24.13;39.06
4745;BME280;2386;42.138;24.746;2022-10-23T14:45:32;99980.19;;;24.03;39.11
4745;BME280;2386;42.138;24.746;2022-10-23T14:47:58;99980.41;;;23.93;38.97
4745;BME280;2386;42.138;24.746;2022-10-23T14:50:25;99971.09;;;23.89;38.97
4745;BME280;2386;42.138;24.746;2022-10-23T14:52:52;99983.09;;;23.84;39.35
4745;BME280;2386;42.138;24.746;2022-10-23T14:55:17;99985.47;;;23.77;38.28
4745;BME280;2386;42.138;24.746;2022-10-23T14:57:43;99987.94;;;23.79;39.25
4745;BME280;2386;42.138;24.746;2022-10-23T15:00:09;99986.84;;;23.66;39.01
4745;BME280;2386;42.138;24.746;2022-10-23T15:02:35;99984.47;;;23.59;38.46
4745;BME280;2386;42.138;24.746;2022-10-23T15:05:02;99992.16;;;23.63;38.37
4745;BME280;2386;42.138;24.746;2022-10-23T15:07:56;99992.78;;;23.59;38.49
4745;BME280;2386;42.138;24.746;2022-10-23T15:10:23;99997.00;;;23.57;38.25
4745;BME280;2386;42.138;24.746;2022-10-23T15:12:48;100002.91;;;23.50;38.17
4745;BME280;2386;42.138;24.746;2022-10-23T15:15:13;99984.53;;;23.41;38.55
4745;BME280;2386;42.138;24.746;2022-10-23T15:17:39;99997.66;;;23.35;38.56
4745;BME280;2386;42.138;24.746;2022-10-23T15:20:06;100010.06;;;23.38;38.87
4745;BME280;2386;42.138;24.746;2022-10-23T15:22:32;100005.06;;;23.40;38.75
4745;BME280;2386;42.138;24.746;2022-10-23T15:24:57;100004.03;;;23.36;38.95
4745;BME280;2386;42.138;24.746;2022-10-23T15:27:23;100002.38;;;23.35;39.27
4745;BME280;2386;42.138;24.746;2022-10-23T15:29:48;100006.06;;;23.30;39.20
4745;BME280;2386;42.138;24.746;2022-10-23T15:32:16;100002.88;;;23.23;39.72
4745;BME280;2386;42.138;24.746;2022-10-23T15:34:41;100000.00;;;23.14;40.02
4745;BME280;2386;42.138;24.746;2022-10-23T15:37:08;100005.31;;;23.11;40.15
4745;BME280;2386;42.138;24.746;2022-10-23T15:39:34;100016.28;;;23.02;40.35